sensor_id;sensor_type;location;lat;lon;timestamp;P1;durP1;ratioP1;P2;durP2;ratioP2
37091;SDS011;23005;51.998;4.502;2022-08-25T00:01:52;31.02;;;25.92;;
37091;SDS011;23005;51.998;4.502;2022-08-25T00:03:47;37.72;;;26.95;;
37091;SDS011;23005;51.998;4.502;2022-08-25T00:05:39;32.90;;;25.60;;
37091;SDS011;23005;51.998;4.502;2022-08-25T00:07:30;34.10;;;27.48;;
37091;SDS011;23005;51.998;4.502;2022-08-25T00:09:22;28.08;;;25.08;;
37091;SDS011;23005;51.998;4.502;2022-08-25T00:11:17;32.40;;;26.50;;
37091;SDS011;23005;51.998;4.502;2022-08-25T00:13:11;29.17;;;25.10;;
37091;SDS011;23005;51.998;4.502;2022-08-25T00:15:02;33.55;;;27.63;;
37091;SDS011;23005;51.998;4.502;2022-08-25T00:18:47;32.92;;;26.38;;
37091;SDS011;23005;51.998;4.502;2022-08-25T00:20:42;33.70;;;26.00;;
37091;SDS011;23005;51.998;4.502;2022-08-25T00:22:37;29.23;;;24.80;;
37091;SDS011;23005;51.998;4.502;2022-08-25T00:24:29;30.95;;;25.48;;
37091;SDS011;23005;51.998;4.502;2022-08-25T00:26:20;30.58;;;26.80;;
37091;SDS011;23005;51.998;4.502;2022-08-25T00:28:14;31.98;;;26.60;;
37091;SDS011;23005;51.998;4.502;2022-08-25T00:31:57;34.05;;;26.38;;
37091;SDS011;23005;51.998;4.502;2022-08-25T00:33:49;30.65;;;26.83;;
37091;SDS011;23005;51.998;4.502;2022-08-25T00:35:41;33.53;;;27.73;;
37091;SDS011;23005;51.998;4.502;2022-08-25T00:37:33;33.28;;;26.13;;
37091;SDS011;23005;51.998;4.502;2022-08-25T00:39:24;31.92;;;26.92;;
37091;SDS011;23005;51.998;4.502;2022-08-25T00:41:21;33.88;;;27.55;;
37091;SDS011;23005;51.998;4.502;2022-08-25T00:43:15;33.67;;;28.00;;
37091;SDS011;23005;51.998;4.502;2022-08-25T00:45:07;36.60;;;27.77;;
37091;SDS011;23005;51.998;4.502;2022-08-25T00:46:59;33.17;;;29.40;;
37091;SDS011;23005;51.998;4.502;2022-08-25T00:48:54;33.13;;;27.38;;
37091;SDS011;23005;51.998;4.502;2022-08-25T00:50:52;30.67;;;27.15;;
37091;SDS011;23005;51.998;4.502;2022-08-25T00:52:45;32.60;;;26.58;;
37091;SDS011;23005;51.998;4.502;2022-08-25T00:54:41;31.85;;;27.45;;
37091;SDS011;23005;51.998;4.502;2022-08-25T00:56:39;33.95;;;29.75;;
37091;SDS011;23005;51.998;4.502;2022-08-25T00:58:32;37.23;;;28.03;;
37091;SDS011;23005;51.998;4.502;2022-08-25T01:00:26;32.05;;;27.85;;
37091;SDS011;23005;51.998;4.502;2022-08-25T01:02:20;35.08;;;29.02;;
37091;SDS011;23005;51.998;4.502;2022-08-25T01:04:11;35.45;;;29.10;;
37091;SDS011;23005;51.998;4.502;2022-08-25T01:06:03;38.10;;;30.75;;
37091;SDS011;23005;51.998;4.502;2022-08-25T01:09:48;32.63;;;28.58;;
37091;SDS011;23005;51.998;4.502;2022-08-25T01:11:41;38.25;;;29.95;;
37091;SDS011;23005;51.998;4.502;2022-08-25T01:13:36;38.58;;;32.78;;
37091;SDS011;23005;51.998;4.502;2022-08-25T01:15:32;35.60;;;28.42;;
37091;SDS011;23005;51.998;4.502;2022-08-25T01:17:31;37.05;;;29.25;;
37091;SDS011;23005;51.998;4.502;2022-08-25T01:19:24;34.75;;;29.45;;
37091;SDS011;23005;51.998;4.502;2022-08-25T01:21:19;39.03;;;30.83;;
37091;SDS011;23005;51.998;4.502;2022-08-25T01:23:12;34.63;;;30.13;;
37091;SDS011;23005;51.998;4.502;2022-08-25T01:25:04;34.67;;;29.83;;
37091;SDS011;23005;51.998;4.502;2022-08-25T01:27:05;35.05;;;30.15;;
37091;SDS011;23005;51.998;4.502;2022-08-25T01:28:58;34.15;;;29.52;;
37091;SDS011;23005;51.998;4.502;2022-08-25T01:30:53;38.50;;;29.40;;
37091;SDS011;23005;51.998;4.502;2022-08-25T01:32:45;33.15;;;28.02;;
37091;SDS011;23005;51.998;4.502;2022-08-25T01:34:37;34.53;;;29.30;;
37091;SDS011;23005;51.998;4.502;2022-08-25T01:36:32;39.95;;;31.67;;
37091;SDS011;23005;51.998;4.502;2022-08-25T01:38:24;32.22;;;28.65;;
37091;SDS011;23005;51.998;4.502;2022-08-25T01:40:15;35.13;;;29.83;;
37091;SDS011;23005;51.998;4.502;2022-08-25T01:42:17;33.47;;;29.83;;
37091;SDS011;23005;51.998;4.502;2022-08-25T01:44:21;36.03;;;30.27;;
37091;SDS011;23005;51.998;4.502;2022-08-25T01:46:13;37.03;;;30.88;;
37091;SDS011;23005;51.998;4.502;2022-08-25T01:48:04;34.78;;;30.15;;
37091;SDS011;23005;51.998;4.502;2022-08-25T01:49:56;33.63;;;29.45;;
37091;SDS011;23005;51.998;4.502;2022-08-25T01:51:50;38.58;;;31.73;;
37091;SDS011;23005;51.998;4.502;2022-08-25T01:53:45;37.03;;;28.73;;
37091;SDS011;23005;51.998;4.502;2022-08-25T01:55:36;34.45;;;30.40;;
37091;SDS011;23005;51.998;4.502;2022-08-25T01:57:27;31.70;;;27.55;;
37091;SDS011;23005;51.998;4.502;2022-08-25T01:59:19;36.53;;;30.20;;
37091;SDS011;23005;51.998;4.502;2022-08-25T02:01:15;34.22;;;28.90;;
37091;SDS011;23005;51.998;4.502;2022-08-25T02:03:09;40.72;;;31.30;;
37091;SDS011;23005;51.998;4.502;2022-08-25T02:05:08;37.70;;;32.67;;
37091;SDS011;23005;51.998;4.502;2022-08-25T02:07:03;39.85;;;33.25;;
37091;SDS011;23005;51.998;4.502;2022-08-25T02:08:58;44.10;;;32.67;;
37091;SDS011;23005;51.998;4.502;2022-08-25T02:10:52;38.70;;;32.15;;
37091;SDS011;23005;51.998;4.502;2022-08-25T02:12:43;37.90;;;30.43;;
37091;SDS011;23005;51.998;4.502;2022-08-25T02:14:34;39.55;;;29.17;;
37091;SDS011;23005;51.998;4.502;2022-08-25T02:16:27;33.88;;;29.65;;
37091;SDS011;23005;51.998;4.502;2022-08-25T02:18:21;34.42;;;29.65;;
37091;SDS011;23005;51.998;4.502;2022-08-25T02:20:12;34.78;;;27.55;;
37091;SDS011;23005;51.998;4.502;2022-08-25T02:22:05;35.70;;;31.80;;
37091;SDS011;23005;51.998;4.502;2022-08-25T02:23:55;36.05;;;28.42;;
37091;SDS011;23005;51.998;4.502;2022-08-25T02:25:46;39.30;;;31.13;;
37091;SDS011;23005;51.998;4.502;2022-08-25T02:27:37;38.38;;;31.40;;
37091;SDS011;23005;51.998;4.502;2022-08-25T02:29:28;39.35;;;30.88;;
37091;SDS011;23005;51.998;4.502;2022-08-25T02:31:20;34.97;;;27.73;;
37091;SDS011;23005;51.998;4.502;2022-08-25T02:33:13;34.53;;;27.98;;
37091;SDS011;23005;51.998;4.502;2022-08-25T02:35:04;38.63;;;28.05;;
37091;SDS011;23005;51.998;4.502;2022-08-25T02:36:57;35.67;;;27.48;;
37091;SDS011;23005;51.998;4.502;2022-08-25T02:38:49;34.53;;;26.83;;
37091;SDS011;23005;51.998;4.502;2022-08-25T02:40:40;32.95;;;27.98;;
37091;SDS011;23005;51.998;4.502;2022-08-25T02:42:31;34.35;;;27.58;;
37091;SDS011;23005;51.998;4.502;2022-08-25T02:44:22;33.08;;;25.70;;
37091;SDS011;23005;51.998;4.502;2022-08-25T02:46:13;30.25;;;26.90;;
37091;SDS011;23005;51.998;4.502;2022-08-25T02:48:05;34.70;;;27.23;;
37091;SDS011;23005;51.998;4.502;2022-08-25T02:49:56;31.15;;;25.65;;
37091;SDS011;23005;51.998;4.502;2022-08-25T02:51:47;32.85;;;25.83;;
37091;SDS011;23005;51.998;4.502;2022-08-25T02:53:40;33.80;;;25.55;;
37091;SDS011;23005;51.998;4.502;2022-08-25T02:55:33;36.08;;;26.48;;
37091;SDS011;23005;51.998;4.502;2022-08-25T02:57:24;31.45;;;26.67;;
37091;SDS011;23005;51.998;4.502;2022-08-25T02:59:15;28.42;;;24.40;;
37091;SDS011;23005;51.998;4.502;2022-08-25T03:01:06;30.88;;;25.40;;
37091;SDS011;23005;51.998;4.502;2022-08-25T03:02:59;31.92;;;26.75;;
37091;SDS011;23005;51.998;4.502;2022-08-25T03:04:50;27.80;;;24.02;;
37091;SDS011;23005;51.998;4.502;2022-08-25T03:06:44;35.00;;;24.70;;
37091;SDS011;23005;51.998;4.502;2022-08-25T03:08:35;31.77;;;23.63;;
37091;SDS011;23005;51.998;4.502;2022-08-25T03:10:26;27.90;;;23.77;;
37091;SDS011;23005;51.998;4.502;2022-08-25T03:12:19;29.80;;;23.17;;
37091;SDS011;23005;51.998;4.502;2022-08-25T03:14:10;27.55;;;24.02;;
37091;SDS011;23005;51.998;4.502;2022-08-25T03:16:01;28.20;;;22.58;;
37091;SDS011;23005;51.998;4.502;2022-08-25T03:18:01;28.83;;;24.83;;
37091;SDS011;23005;51.998;4.502;2022-08-25T03:19:54;27.70;;;21.77;;
37091;SDS011;23005;51.998;4.502;2022-08-25T03:21:44;29.15;;;23.17;;
37091;SDS011;23005;51.998;4.502;2022-08-25T03:23:35;25.73;;;22.42;;
37091;SDS011;23005;51.998;4.502;2022-08-25T03:25:26;27.25;;;23.35;;
37091;SDS011;23005;51.998;4.502;2022-08-25T03:27:19;28.80;;;21.38;;
37091;SDS011;23005;51.998;4.502;2022-08-25T03:29:10;24.42;;;21.83;;
37091;SDS011;23005;51.998;4.502;2022-08-25T03:31:01;26.42;;;23.45;;
37091;SDS011;23005;51.998;4.502;2022-08-25T03:32:52;28.05;;;22.83;;
37091;SDS011;23005;51.998;4.502;2022-08-25T03:34:43;26.38;;;22.23;;
37091;SDS011;23005;51.998;4.502;2022-08-25T03:36:34;28.23;;;21.67;;
37091;SDS011;23005;51.998;4.502;2022-08-25T03:38:25;26.42;;;21.50;;
37091;SDS011;23005;51.998;4.502;2022-08-25T03:40:17;27.85;;;22.95;;
37091;SDS011;23005;51.998;4.502;2022-08-25T03:42:08;27.27;;;20.90;;
37091;SDS011;23005;51.998;4.502;2022-08-25T03:44:01;24.73;;;20.83;;
37091;SDS011;23005;51.998;4.502;2022-08-25T03:45:54;28.52;;;20.65;;
37091;SDS011;23005;51.998;4.502;2022-08-25T03:47:45;22.83;;;19.60;;
37091;SDS011;23005;51.998;4.502;2022-08-25T03:49:37;24.17;;;18.33;;
37091;SDS011;23005;51.998;4.502;2022-08-25T03:51:29;21.30;;;16.85;;
37091;SDS011;23005;51.998;4.502;2022-08-25T03:53:23;21.60;;;17.52;;
37091;SDS011;23005;51.998;4.502;2022-08-25T03:55:14;22.70;;;15.48;;
37091;SDS011;23005;51.998;4.502;2022-08-25T03:57:05;16.80;;;15.00;;
37091;SDS011;23005;51.998;4.502;2022-08-25T03:58:56;21.52;;;14.82;;
37091;SDS011;23005;51.998;4.502;2022-08-25T04:00:48;24.27;;;14.88;;
37091;SDS011;23005;51.998;4.502;2022-08-25T04:02:39;15.70;;;14.00;;
37091;SDS011;23005;51.998;4.502;2022-08-25T04:04:31;24.90;;;15.20;;
37091;SDS011;23005;51.998;4.502;2022-08-25T04:06:22;15.38;;;13.13;;
37091;SDS011;23005;51.998;4.502;2022-08-25T04:08:14;17.38;;;13.15;;
37091;SDS011;23005;51.998;4.502;2022-08-25T04:10:08;18.55;;;13.73;;
37091;SDS011;23005;51.998;4.502;2022-08-25T04:11:59;17.50;;;14.43;;
37091;SDS011;23005;51.998;4.502;2022-08-25T04:13:51;17.25;;;13.23;;
37091;SDS011;23005;51.998;4.502;2022-08-25T04:15:45;18.70;;;13.85;;
37091;SDS011;23005;51.998;4.502;2022-08-25T04:17:37;15.93;;;13.80;;
37091;SDS011;23005;51.998;4.502;2022-08-25T04:19:29;23.90;;;15.00;;
37091;SDS011;23005;51.998;4.502;2022-08-25T04:21:21;15.73;;;13.23;;
37091;SDS011;23005;51.998;4.502;2022-08-25T04:25:04;18.23;;;14.35;;
37091;SDS011;23005;51.998;4.502;2022-08-25T04:26:56;17.80;;;13.13;;
37091;SDS011;23005;51.998;4.502;2022-08-25T04:28:48;16.92;;;13.68;;
37091;SDS011;23005;51.998;4.502;2022-08-25T04:30:40;21.00;;;13.88;;
37091;SDS011;23005;51.998;4.502;2022-08-25T04:34:24;22.35;;;14.80;;
37091;SDS011;23005;51.998;4.502;2022-08-25T04:36:21;18.40;;;14.82;;
37091;SDS011;23005;51.998;4.502;2022-08-25T04:38:12;20.10;;;14.15;;
37091;SDS011;23005;51.998;4.502;2022-08-25T04:40:03;19.25;;;14.73;;
37091;SDS011;23005;51.998;4.502;2022-08-25T04:41:55;19.67;;;14.35;;
37091;SDS011;23005;51.998;4.502;2022-08-25T04:43:46;18.30;;;13.85;;
37091;SDS011;23005;51.998;4.502;2022-08-25T04:45:37;18.60;;;15.18;;
37091;SDS011;23005;51.998;4.502;2022-08-25T04:47:29;20.33;;;15.15;;
37091;SDS011;23005;51.998;4.502;2022-08-25T04:49:20;16.75;;;14.32;;
37091;SDS011;23005;51.998;4.502;2022-08-25T04:51:14;18.67;;;14.77;;
37091;SDS011;23005;51.998;4.502;2022-08-25T04:53:07;29.38;;;15.00;;
37091;SDS011;23005;51.998;4.502;2022-08-25T04:54:58;26.25;;;14.68;;
37091;SDS011;23005;51.998;4.502;2022-08-25T04:56:49;20.83;;;14.43;;
37091;SDS011;23005;51.998;4.502;2022-08-25T04:58:47;19.75;;;14.35;;
37091;SDS011;23005;51.998;4.502;2022-08-25T05:00:38;17.40;;;13.70;;
37091;SDS011;23005;51.998;4.502;2022-08-25T05:02:30;20.83;;;14.15;;
37091;SDS011;23005;51.998;4.502;2022-08-25T05:04:20;19.67;;;14.15;;
37091;SDS011;23005;51.998;4.502;2022-08-25T05:06:19;20.23;;;14.73;;
37091;SDS011;23005;51.998;4.502;2022-08-25T05:10:01;22.00;;;13.82;;
37091;SDS011;23005;51.998;4.502;2022-08-25T05:11:52;20.63;;;15.32;;
37091;SDS011;23005;51.998;4.502;2022-08-25T05:13:44;18.43;;;13.50;;
37091;SDS011;23005;51.998;4.502;2022-08-25T05:15:41;19.45;;;14.13;;
37091;SDS011;23005;51.998;4.502;2022-08-25T05:17:31;17.83;;;14.75;;
37091;SDS011;23005;51.998;4.502;2022-08-25T05:19:23;17.65;;;14.55;;
37091;SDS011;23005;51.998;4.502;2022-08-25T05:21:15;16.92;;;14.40;;
37091;SDS011;23005;51.998;4.502;2022-08-25T05:23:10;18.92;;;13.65;;
37091;SDS011;23005;51.998;4.502;2022-08-25T05:25:00;17.65;;;14.02;;
37091;SDS011;23005;51.998;4.502;2022-08-25T05:26:51;17.77;;;13.90;;
37091;SDS011;23005;51.998;4.502;2022-08-25T05:28:42;19.13;;;13.88;;
37091;SDS011;23005;51.998;4.502;2022-08-25T05:30:36;18.48;;;13.77;;
37091;SDS011;23005;51.998;4.502;2022-08-25T05:32:28;20.55;;;15.00;;
37091;SDS011;23005;51.998;4.502;2022-08-25T05:34:19;18.42;;;13.35;;
37091;SDS011;23005;51.998;4.502;2022-08-25T05:36:12;17.52;;;12.60;;
37091;SDS011;23005;51.998;4.502;2022-08-25T05:38:04;17.35;;;15.02;;
37091;SDS011;23005;51.998;4.502;2022-08-25T05:41:48;22.08;;;15.35;;
37091;SDS011;23005;51.998;4.502;2022-08-25T05:43:39;19.67;;;14.70;;
37091;SDS011;23005;51.998;4.502;2022-08-25T05:45:32;25.30;;;15.20;;
37091;SDS011;23005;51.998;4.502;2022-08-25T05:47:23;23.83;;;15.52;;
37091;SDS011;23005;51.998;4.502;2022-08-25T05:49:15;20.92;;;15.45;;
37091;SDS011;23005;51.998;4.502;2022-08-25T05:51:06;23.95;;;14.85;;
37091;SDS011;23005;51.998;4.502;2022-08-25T05:53:02;28.75;;;15.48;;
37091;SDS011;23005;51.998;4.502;2022-08-25T05:54:53;22.27;;;14.32;;
37091;SDS011;23005;51.998;4.502;2022-08-25T05:56:45;17.77;;;14.32;;
37091;SDS011;23005;51.998;4.502;2022-08-25T06:00:27;26.02;;;15.63;;
37091;SDS011;23005;51.998;4.502;2022-08-25T06:02:18;22.02;;;14.95;;
37091;SDS011;23005;51.998;4.502;2022-08-25T06:04:09;26.92;;;16.33;;
37091;SDS011;23005;51.998;4.502;2022-08-25T06:06:03;25.13;;;15.00;;
37091;SDS011;23005;51.998;4.502;2022-08-25T06:07:55;18.65;;;14.48;;
37091;SDS011;23005;51.998;4.502;2022-08-25T06:09:46;23.40;;;15.18;;
37091;SDS011;23005;51.998;4.502;2022-08-25T06:11:38;27.08;;;14.43;;
37091;SDS011;23005;51.998;4.502;2022-08-25T06:13:31;20.00;;;15.15;;
37091;SDS011;23005;51.998;4.502;2022-08-25T06:17:13;18.50;;;14.65;;
37091;SDS011;23005;51.998;4.502;2022-08-25T06:19:05;21.65;;;14.95;;
37091;SDS011;23005;51.998;4.502;2022-08-25T06:20:58;23.65;;;14.20;;
37091;SDS011;23005;51.998;4.502;2022-08-25T06:22:55;23.20;;;14.70;;
37091;SDS011;23005;51.998;4.502;2022-08-25T06:24:47;21.88;;;14.32;;
37091;SDS011;23005;51.998;4.502;2022-08-25T06:26:38;24.33;;;14.57;;
37091;SDS011;23005;51.998;4.502;2022-08-25T06:28:29;26.27;;;14.52;;
37091;SDS011;23005;51.998;4.502;2022-08-25T06:30:22;28.40;;;15.55;;
37091;SDS011;23005;51.998;4.502;2022-08-25T06:32:18;22.20;;;15.05;;
37091;SDS011;23005;51.998;4.502;2022-08-25T06:34:09;21.77;;;15.43;;
37091;SDS011;23005;51.998;4.502;2022-08-25T06:36:00;19.48;;;14.55;;
37091;SDS011;23005;51.998;4.502;2022-08-25T06:39:43;27.63;;;15.00;;
37091;SDS011;23005;51.998;4.502;2022-08-25T06:41:34;26.63;;;14.80;;
37091;SDS011;23005;51.998;4.502;2022-08-25T06:43:26;24.23;;;14.90;;
37091;SDS011;23005;51.998;4.502;2022-08-25T06:45:17;28.15;;;15.52;;
37091;SDS011;23005;51.998;4.502;2022-08-25T06:47:09;25.20;;;15.50;;
37091;SDS011;23005;51.998;4.502;2022-08-25T06:49:00;26.17;;;15.55;;
37091;SDS011;23005;51.998;4.502;2022-08-25T06:50:51;18.58;;;14.38;;
37091;SDS011;23005;51.998;4.502;2022-08-25T06:52:42;19.88;;;14.98;;
37091;SDS011;23005;51.998;4.502;2022-08-25T06:54:33;20.75;;;15.45;;
37091;SDS011;23005;51.998;4.502;2022-08-25T06:56:24;22.88;;;15.48;;
37091;SDS011;23005;51.998;4.502;2022-08-25T06:58:15;22.98;;;14.40;;
37091;SDS011;23005;51.998;4.502;2022-08-25T07:00:06;23.00;;;15.23;;
37091;SDS011;23005;51.998;4.502;2022-08-25T07:02:01;25.48;;;15.25;;
37091;SDS011;23005;51.998;4.502;2022-08-25T07:03:56;20.65;;;15.10;;
37091;SDS011;23005;51.998;4.502;2022-08-25T07:05:50;26.38;;;15.25;;
37091;SDS011;23005;51.998;4.502;2022-08-25T07:07:44;22.75;;;15.52;;
37091;SDS011;23005;51.998;4.502;2022-08-25T07:09:35;22.27;;;13.95;;
37091;SDS011;23005;51.998;4.502;2022-08-25T07:11:28;19.95;;;13.95;;
37091;SDS011;23005;51.998;4.502;2022-08-25T07:13:19;19.17;;;13.27;;
37091;SDS011;23005;51.998;4.502;2022-08-25T07:15:10;19.42;;;14.20;;
37091;SDS011;23005;51.998;4.502;2022-08-25T07:17:15;21.38;;;13.65;;
37091;SDS011;23005;51.998;4.502;2022-08-25T07:19:09;24.33;;;13.77;;
37091;SDS011;23005;51.998;4.502;2022-08-25T07:21:03;21.80;;;12.65;;
37091;SDS011;23005;51.998;4.502;2022-08-25T07:22:58;18.45;;;13.05;;
37091;SDS011;23005;51.998;4.502;2022-08-25T07:24:49;21.63;;;13.10;;
37091;SDS011;23005;51.998;4.502;2022-08-25T07:26:40;17.67;;;12.13;;
37091;SDS011;23005;51.998;4.502;2022-08-25T07:28:32;17.75;;;12.82;;
37091;SDS011;23005;51.998;4.502;2022-08-25T07:30:23;24.08;;;12.13;;
37091;SDS011;23005;51.998;4.502;2022-08-25T07:32:14;18.35;;;12.40;;
37091;SDS011;23005;51.998;4.502;2022-08-25T07:34:05;22.23;;;12.05;;
37091;SDS011;23005;51.998;4.502;2022-08-25T07:35:59;23.58;;;12.75;;
37091;SDS011;23005;51.998;4.502;2022-08-25T07:37:51;17.20;;;11.73;;
37091;SDS011;23005;51.998;4.502;2022-08-25T07:39:46;17.30;;;11.82;;
37091;SDS011;23005;51.998;4.502;2022-08-25T07:41:42;19.27;;;11.20;;
37091;SDS011;23005;51.998;4.502;2022-08-25T07:43:42;17.02;;;10.57;;
37091;SDS011;23005;51.998;4.502;2022-08-25T07:45:37;15.60;;;10.07;;
37091;SDS011;23005;51.998;4.502;2022-08-25T07:47:38;17.38;;;9.25;;
37091;SDS011;23005;51.998;4.502;2022-08-25T07:49:31;15.70;;;9.13;;
37091;SDS011;23005;51.998;4.502;2022-08-25T07:51:30;15.60;;;8.75;;
37091;SDS011;23005;51.998;4.502;2022-08-25T07:53:20;16.38;;;8.48;;
37091;SDS011;23005;51.998;4.502;2022-08-25T07:55:11;13.60;;;8.07;;
37091;SDS011;23005;51.998;4.502;2022-08-25T07:57:07;16.35;;;7.40;;
37091;SDS011;23005;51.998;4.502;2022-08-25T07:58:58;15.35;;;7.20;;
37091;SDS011;23005;51.998;4.502;2022-08-25T08:00:49;13.48;;;7.25;;
37091;SDS011;23005;51.998;4.502;2022-08-25T08:02:40;18.10;;;6.57;;
37091;SDS011;23005;51.998;4.502;2022-08-25T08:04:32;13.70;;;7.07;;
37091;SDS011;23005;51.998;4.502;2022-08-25T08:06:25;16.92;;;7.00;;
37091;SDS011;23005;51.998;4.502;2022-08-25T08:08:17;13.30;;;6.97;;
37091;SDS011;23005;51.998;4.502;2022-08-25T08:12:20;10.48;;;6.00;;
37091;SDS011;23005;51.998;4.502;2022-08-25T08:14:12;21.17;;;7.10;;
37091;SDS011;23005;51.998;4.502;2022-08-25T08:16:07;17.25;;;6.47;;
37091;SDS011;23005;51.998;4.502;2022-08-25T08:17:58;15.68;;;7.03;;
37091;SDS011;23005;51.998;4.502;2022-08-25T08:19:49;17.75;;;6.28;;
37091;SDS011;23005;51.998;4.502;2022-08-25T08:21:40;14.02;;;5.53;;
37091;SDS011;23005;51.998;4.502;2022-08-25T08:23:32;9.77;;;5.20;;
37091;SDS011;23005;51.998;4.502;2022-08-25T08:25:23;16.65;;;5.45;;
37091;SDS011;23005;51.998;4.502;2022-08-25T08:27:16;15.32;;;5.68;;
37091;SDS011;23005;51.998;4.502;2022-08-25T08:29:07;16.58;;;5.68;;
37091;SDS011;23005;51.998;4.502;2022-08-25T08:30:58;13.43;;;5.65;;
37091;SDS011;23005;51.998;4.502;2022-08-25T08:32:49;15.20;;;5.95;;
37091;SDS011;23005;51.998;4.502;2022-08-25T08:34:59;14.82;;;5.20;;
37091;SDS011;23005;51.998;4.502;2022-08-25T08:36:50;13.32;;;5.30;;
37091;SDS011;23005;51.998;4.502;2022-08-25T08:38:44;10.93;;;4.82;;
37091;SDS011;23005;51.998;4.502;2022-08-25T08:40:38;15.55;;;5.20;;
37091;SDS011;23005;51.998;4.502;2022-08-25T08:42:46;13.55;;;5.35;;
37091;SDS011;23005;51.998;4.502;2022-08-25T08:44:53;12.32;;;4.90;;
37091;SDS011;23005;51.998;4.502;2022-08-25T08:47:15;14.35;;;5.00;;
37091;SDS011;23005;51.998;4.502;2022-08-25T08:49:17;18.95;;;5.07;;
37091;SDS011;23005;51.998;4.502;2022-08-25T08:51:18;10.68;;;4.40;;
37091;SDS011;23005;51.998;4.502;2022-08-25T08:53:12;9.55;;;4.10;;
37091;SDS011;23005;51.998;4.502;2022-08-25T08:55:14;16.08;;;4.97;;
37091;SDS011;23005;51.998;4.502;2022-08-25T08:57:13;18.88;;;4.60;;
37091;SDS011;23005;51.998;4.502;2022-08-25T08:59:09;7.80;;;4.25;;
37091;SDS011;23005;51.998;4.502;2022-08-25T09:01:08;11.65;;;4.03;;
37091;SDS011;23005;51.998;4.502;2022-08-25T09:03:04;16.17;;;4.50;;
37091;SDS011;23005;51.998;4.502;2022-08-25T09:04:59;10.50;;;4.15;;
37091;SDS011;23005;51.998;4.502;2022-08-25T09:06:55;11.00;;;3.97;;
37091;SDS011;23005;51.998;4.502;2022-08-25T09:08:49;9.18;;;4.20;;
37091;SDS011;23005;51.998;4.502;2022-08-25T09:10:52;10.65;;;4.03;;
37091;SDS011;23005;51.998;4.502;2022-08-25T09:12:53;12.77;;;4.25;;
37091;SDS011;23005;51.998;4.502;2022-08-25T09:15:03;9.95;;;4.38;;
37091;SDS011;23005;51.998;4.502;2022-08-25T09:17:05;10.00;;;4.10;;
37091;SDS011;23005;51.998;4.502;2022-08-25T09:19:09;14.80;;;4.35;;
37091;SDS011;23005;51.998;4.502;2022-08-25T09:21:24;17.52;;;3.65;;
37091;SDS011;23005;51.998;4.502;2022-08-25T09:23:25;7.25;;;3.72;;
37091;SDS011;23005;51.998;4.502;2022-08-25T09:25:27;10.23;;;4.20;;
37091;SDS011;23005;51.998;4.502;2022-08-25T09:27:45;11.70;;;4.53;;
37091;SDS011;23005;51.998;4.502;2022-08-25T09:29:52;11.30;;;4.10;;
37091;SDS011;23005;51.998;4.502;2022-08-25T09:31:54;12.02;;;4.30;;
37091;SDS011;23005;51.998;4.502;2022-08-25T09:33:49;8.57;;;3.95;;
37091;SDS011;23005;51.998;4.502;2022-08-25T09:35:44;11.80;;;3.97;;
37091;SDS011;23005;51.998;4.502;2022-08-25T09:37:38;11.10;;;3.92;;
37091;SDS011;23005;51.998;4.502;2022-08-25T09:39:29;12.63;;;4.22;;
37091;SDS011;23005;51.998;4.502;2022-08-25T09:41:33;12.10;;;4.32;;
37091;SDS011;23005;51.998;4.502;2022-08-25T09:43:35;7.80;;;3.90;;
37091;SDS011;23005;51.998;4.502;2022-08-25T09:45:32;9.02;;;3.80;;
37091;SDS011;23005;51.998;4.502;2022-08-25T09:47:31;11.10;;;3.50;;
37091;SDS011;23005;51.998;4.502;2022-08-25T09:49:35;10.77;;;3.72;;
37091;SDS011;23005;51.998;4.502;2022-08-25T09:51:30;9.02;;;3.83;;
37091;SDS011;23005;51.998;4.502;2022-08-25T09:53:27;8.15;;;3.50;;
37091;SDS011;23005;51.998;4.502;2022-08-25T09:55:26;10.95;;;3.80;;
37091;SDS011;23005;51.998;4.502;2022-08-25T09:57:28;9.73;;;3.50;;
37091;SDS011;23005;51.998;4.502;2022-08-25T09:59:25;7.27;;;3.20;;
37091;SDS011;23005;51.998;4.502;2022-08-25T10:01:24;11.87;;;3.90;;
37091;SDS011;23005;51.998;4.502;2022-08-25T10:03:21;11.48;;;3.38;;
37091;SDS011;23005;51.998;4.502;2022-08-25T10:05:18;8.35;;;3.58;;
37091;SDS011;23005;51.998;4.502;2022-08-25T10:07:18;8.27;;;3.85;;
37091;SDS011;23005;51.998;4.502;2022-08-25T10:09:21;8.52;;;3.60;;
37091;SDS011;23005;51.998;4.502;2022-08-25T10:11:28;10.85;;;4.20;;
37091;SDS011;23005;51.998;4.502;2022-08-25T10:13:31;16.17;;;3.47;;
37091;SDS011;23005;51.998;4.502;2022-08-25T10:15:29;11.15;;;3.53;;
37091;SDS011;23005;51.998;4.502;2022-08-25T10:17:24;8.85;;;3.58;;
37091;SDS011;23005;51.998;4.502;2022-08-25T10:19:22;12.30;;;3.60;;
37091;SDS011;23005;51.998;4.502;2022-08-25T10:21:16;8.57;;;3.47;;
37091;SDS011;23005;51.998;4.502;2022-08-25T10:23:08;14.15;;;3.72;;
37091;SDS011;23005;51.998;4.502;2022-08-25T10:25:02;8.15;;;3.83;;
37091;SDS011;23005;51.998;4.502;2022-08-25T10:26:57;12.93;;;3.78;;
37091;SDS011;23005;51.998;4.502;2022-08-25T10:28:59;11.35;;;3.97;;
37091;SDS011;23005;51.998;4.502;2022-08-25T10:31:03;4.88;;;3.20;;
37091;SDS011;23005;51.998;4.502;2022-08-25T10:33:07;10.50;;;3.58;;
37091;SDS011;23005;51.998;4.502;2022-08-25T10:35:08;9.57;;;4.00;;
37091;SDS011;23005;51.998;4.502;2022-08-25T10:37:08;11.88;;;3.75;;
37091;SDS011;23005;51.998;4.502;2022-08-25T10:39:12;11.82;;;3.45;;
37091;SDS011;23005;51.998;4.502;2022-08-25T10:41:32;11.30;;;3.65;;
37091;SDS011;23005;51.998;4.502;2022-08-25T10:43:42;8.32;;;3.50;;
37091;SDS011;23005;51.998;4.502;2022-08-25T10:45:44;7.80;;;3.55;;
37091;SDS011;23005;51.998;4.502;2022-08-25T10:47:53;8.35;;;3.65;;
37091;SDS011;23005;51.998;4.502;2022-08-25T10:50:17;5.45;;;3.83;;
37091;SDS011;23005;51.998;4.502;2022-08-25T10:52:19;8.52;;;3.38;;
37091;SDS011;23005;51.998;4.502;2022-08-25T10:54:24;9.38;;;3.40;;
37091;SDS011;23005;51.998;4.502;2022-08-25T10:56:25;10.52;;;3.50;;
37091;SDS011;23005;51.998;4.502;2022-08-25T10:58:21;12.32;;;3.70;;
37091;SDS011;23005;51.998;4.502;2022-08-25T11:00:23;11.10;;;3.40;;
37091;SDS011;23005;51.998;4.502;2022-08-25T11:02:29;10.80;;;3.70;;
37091;SDS011;23005;51.998;4.502;2022-08-25T11:04:56;9.63;;;3.70;;
37091;SDS011;23005;51.998;4.502;2022-08-25T11:06:54;10.50;;;3.60;;
37091;SDS011;23005;51.998;4.502;2022-08-25T11:08:53;8.07;;;3.47;;
37091;SDS011;23005;51.998;4.502;2022-08-25T11:10:50;10.38;;;3.50;;
37091;SDS011;23005;51.998;4.502;2022-08-25T11:12:49;8.80;;;3.22;;
37091;SDS011;23005;51.998;4.502;2022-08-25T11:14:45;7.35;;;3.42;;
37091;SDS011;23005;51.998;4.502;2022-08-25T11:16:43;13.38;;;3.33;;
37091;SDS011;23005;51.998;4.502;2022-08-25T11:18:45;10.48;;;3.30;;
37091;SDS011;23005;51.998;4.502;2022-08-25T11:20:45;8.35;;;3.17;;
37091;SDS011;23005;51.998;4.502;2022-08-25T11:22:56;8.35;;;3.35;;
37091;SDS011;23005;51.998;4.502;2022-08-25T11:25:01;8.68;;;3.20;;
37091;SDS011;23005;51.998;4.502;2022-08-25T11:27:00;13.77;;;3.42;;
37091;SDS011;23005;51.998;4.502;2022-08-25T11:29:03;8.02;;;3.40;;
37091;SDS011;23005;51.998;4.502;2022-08-25T11:31:01;18.27;;;3.85;;
37091;SDS011;23005;51.998;4.502;2022-08-25T11:32:54;14.27;;;3.30;;
37091;SDS011;23005;51.998;4.502;2022-08-25T11:34:47;8.82;;;3.28;;
37091;SDS011;23005;51.998;4.502;2022-08-25T11:36:38;17.98;;;3.90;;